createdAt,value
2023-05-12T00:01:27.438Z,97777.96
2023-05-12T00:03:57.614Z,97779.00
2023-05-12T00:06:28.052Z,97777.27
2023-05-12T00:08:57.928Z,97778.52
2023-05-12T00:11:28.020Z,97778.11
2023-05-12T00:13:58.013Z,97775.50
2023-05-12T00:16:28.393Z,97773.77
2023-05-12T00:18:58.694Z,97770.75
2023-05-12T00:21:28.785Z,97768.16
2023-05-12T00:23:59.354Z,97767.02
2023-05-12T00:26:49.976Z,97767.23
2023-05-12T00:29:20.606Z,97765.27
2023-05-12T00:31:50.882Z,97766.98
2023-05-12T00:34:20.776Z,97768.34
2023-05-12T00:36:50.745Z,97768.08
2023-05-12T00:39:20.764Z,97773.05
2023-05-12T00:41:56.979Z,97767.83
2023-05-12T00:44:26.930Z,97769.98
2023-05-12T00:46:57.012Z,97772.73
2023-05-12T00:49:27.712Z,97772.74
2023-05-12T00:51:58.502Z,97777.46
2023-05-12T00:54:28.830Z,97782.88
2023-05-12T00:56:59.272Z,97786.34
2023-05-12T00:59:30.053Z,97786.64
2023-05-12T01:02:00.765Z,97786.48
2023-05-12T01:04:32.452Z,97793.77
2023-05-12T01:07:09.661Z,97792.90
2023-05-12T01:09:40.142Z,97792.83
2023-05-12T01:12:10.922Z,97792.73
2023-05-12T01:14:42.501Z,97789.55
2023-05-12T01:17:15.507Z,97788.92
2023-05-12T01:19:49.003Z,97790.39
2023-05-12T01:22:18.171Z,97791.36
2023-05-12T01:24:53.072Z,97791.14
2023-05-12T01:27:25.964Z,97794.17
2023-05-12T01:29:59.602Z,97795.16
2023-05-12T01:32:30.971Z,97791.30
2023-05-12T01:35:01.612Z,97790.79
2023-05-12T01:37:33.811Z,97792.23
2023-05-12T01:40:08.312Z,97794.59
2023-05-12T01:42:40.141Z,97794.31
2023-05-12T01:45:12.312Z,97796.07
2023-05-12T01:47:43.983Z,97794.39
2023-05-12T01:50:13.933Z,97795.63
2023-05-12T01:52:46.005Z,97794.63
2023-05-12T01:55:17.940Z,97792.10
2023-05-12T01:57:59.287Z,97798.14
2023-05-12T02:00:29.473Z,97800.93
2023-05-12T02:02:59.994Z,97799.20
2023-05-12T02:05:31.071Z,97796.63
2023-05-12T02:08:01.475Z,97796.52
2023-05-12T02:10:31.906Z,97792.09
2023-05-12T02:13:02.626Z,97796.04
2023-05-12T02:15:32.991Z,97792.72
2023-05-12T02:18:04.320Z,97788.30
2023-05-12T02:20:34.249Z,97786.56
2023-05-12T02:23:05.766Z,97787.29
2023-05-12T02:25:35.993Z,97790.35
2023-05-12T02:28:10.566Z,97789.14
2023-05-12T02:30:44.929Z,97788.84
2023-05-12T02:33:15.066Z,97785.59
2023-05-12T02:35:45.367Z,97789.27
2023-05-12T02:38:15.685Z,97788.45
2023-05-12T02:40:46.602Z,97791.95
2023-05-12T02:43:17.519Z,97792.71
2023-05-12T02:45:47.775Z,97796.73
2023-05-12T02:48:17.958Z,97795.82
2023-05-12T02:50:47.828Z,97799.69
2023-05-12T02:53:18.899Z,97800.16
2023-05-12T02:55:49.659Z,97799.35
2023-05-12T02:58:19.859Z,97794.53
2023-05-12T03:00:59.881Z,97798.32
2023-05-12T03:03:38.017Z,97791.59
2023-05-12T03:06:09.101Z,97794.69
2023-05-12T03:08:39.135Z,97791.42
2023-05-12T03:11:09.004Z,97788.23
2023-05-12T03:13:39.102Z,97786.71
2023-05-12T03:16:10.659Z,97786.00
2023-05-12T03:18:40.933Z,97781.71
2023-05-12T03:21:11.060Z,97782.07
2023-05-12T03:23:41.106Z,97781.98
2023-05-12T03:26:11.276Z,97779.58
2023-05-12T03:28:41.270Z,97786.48
2023-05-12T03:31:11.507Z,97781.46
2023-05-12T03:33:41.718Z,97781.61
2023-05-12T03:36:11.979Z,97787.17
2023-05-12T03:38:41.997Z,97782.33
2023-05-12T03:41:12.069Z,97782.81
2023-05-12T03:43:42.547Z,97780.55
2023-05-12T03:46:12.698Z,97783.23
2023-05-12T03:48:42.867Z,97781.20
2023-05-12T03:51:12.973Z,97785.82
2023-05-12T03:53:45.937Z,97787.13
2023-05-12T03:56:16.731Z,97788.84
2023-05-12T03:58:47.007Z,97793.24
2023-05-12T04:01:18.855Z,97791.84
2023-05-12T04:03:49.092Z,97791.98
2023-05-12T04:06:19.002Z,97795.19
2023-05-12T04:08:49.094Z,97794.11
2023-05-12T04:11:18.876Z,97797.20
2023-05-12T04:13:49.063Z,97802.33
2023-05-12T04:16:18.991Z,97801.74
2023-05-12T04:18:49.386Z,97811.52
2023-05-12T04:21:19.388Z,97806.02
2023-05-12T04:23:52.790Z,97807.81
2023-05-12T04:26:23.199Z,97810.91
2023-05-12T04:28:53.518Z,97815.41
2023-05-12T04:31:23.652Z,97813.58
2023-05-12T04:33:55.622Z,97815.34
2023-05-12T04:36:27.350Z,97814.75
2023-05-12T04:38:57.959Z,97813.06
2023-05-12T04:41:28.129Z,97812.24
2023-05-12T04:44:00.534Z,97811.39
2023-05-12T04:46:34.517Z,97815.30
2023-05-12T04:49:05.089Z,97813.42
2023-05-12T04:51:41.742Z,97811.95
2023-05-12T04:54:12.196Z,97816.33
2023-05-12T04:56:42.661Z,97820.26
2023-05-12T04:59:15.220Z,97814.55
2023-05-12T05:01:45.993Z,97816.45
2023-05-12T05:04:17.209Z,97821.74
2023-05-12T05:06:47.270Z,97822.09
2023-05-12T05:09:17.615Z,97827.77
2023-05-12T05:11:48.355Z,97830.34
2023-05-12T05:14:18.551Z,97832.39
2023-05-12T05:16:48.764Z,97837.52
2023-05-12T05:19:23.073Z,97839.29
2023-05-12T05:22:00.793Z,97842.10
2023-05-12T05:24:31.115Z,97838.62
2023-05-12T05:27:01.737Z,97840.27
2023-05-12T05:29:32.367Z,97843.93
2023-05-12T05:32:02.510Z,97848.41
2023-05-12T05:34:32.539Z,97852.77
2023-05-12T05:37:03.274Z,97848.20
2023-05-12T05:39:33.452Z,97854.05
2023-05-12T05:42:03.696Z,97855.46
2023-05-12T05:44:33.997Z,97856.10
2023-05-12T05:47:04.223Z,97858.36
2023-05-12T05:49:34.440Z,97857.31
2023-05-12T05:52:05.055Z,97859.52
2023-05-12T05:54:35.462Z,97860.02
2023-05-12T05:57:06.059Z,97865.59
2023-05-12T05:59:36.485Z,97863.89
2023-05-12T06:02:07.725Z,97866.71
2023-05-12T06:04:38.439Z,97873.21
2023-05-12T06:07:08.599Z,97874.39
2023-05-12T06:09:38.837Z,97875.34
2023-05-12T06:12:10.449Z,97879.44
2023-05-12T06:14:40.894Z,97876.83
2023-05-12T06:17:57.436Z,97878.21
2023-05-12T06:26:25.376Z,97874.82
2023-05-12T06:28:55.966Z,97869.80
2023-05-12T06:31:26.770Z,97872.36
2023-05-12T06:33:56.705Z,97873.69
2023-05-12T06:36:27.751Z,97874.16
2023-05-12T06:38:58.151Z,97874.73
2023-05-12T06:41:28.471Z,97870.06
2023-05-12T06:44:00.009Z,97873.43
2023-05-12T06:46:30.732Z,97873.21
2023-05-12T06:49:00.974Z,97871.67
2023-05-12T06:51:31.071Z,97876.27
2023-05-12T06:54:01.279Z,97879.74
2023-05-12T06:56:34.429Z,97885.90
2023-05-12T06:59:04.868Z,97885.09
2023-05-12T07:01:35.218Z,97889.03
2023-05-12T07:04:06.041Z,97887.17
2023-05-12T07:06:36.447Z,97888.13
2023-05-12T07:09:06.520Z,97880.23
2023-05-12T07:11:36.941Z,97886.06
2023-05-12T07:14:07.177Z,97887.06
2023-05-12T07:16:37.460Z,97882.20
2023-05-12T07:19:08.774Z,97886.49
2023-05-12T07:21:39.300Z,97891.97
2023-05-12T07:24:09.937Z,97895.70
2023-05-12T07:26:40.150Z,97895.30
2023-05-12T07:29:13.414Z,97894.04
2023-05-12T07:31:44.085Z,97893.01
2023-05-12T07:34:14.796Z,97898.64
2023-05-12T07:36:45.523Z,97897.45
2023-05-12T07:39:19.122Z,97902.50
2023-05-12T07:41:49.294Z,97900.36
2023-05-12T07:44:19.193Z,97899.09
2023-05-12T07:46:49.439Z,97898.57
2023-05-12T07:49:20.051Z,97896.48
2023-05-12T07:51:50.278Z,97896.70
2023-05-12T07:54:20.985Z,97899.66
2023-05-12T07:56:51.260Z,97900.11
2023-05-12T07:59:21.431Z,97905.64
2023-05-12T08:01:51.588Z,97906.16
2023-05-12T08:04:22.416Z,97907.58
2023-05-12T08:06:52.381Z,97909.54
2023-05-12T08:09:22.333Z,97912.14
2023-05-12T08:11:52.748Z,97906.55
2023-05-12T08:14:25.262Z,97904.38
2023-05-12T08:16:55.492Z,97902.23
2023-05-12T08:19:25.625Z,97900.29
2023-05-12T08:21:55.876Z,97902.58
2023-05-12T08:24:26.214Z,97904.96
2023-05-12T08:26:56.259Z,97902.52
2023-05-12T08:29:27.638Z,97899.33
2023-05-12T08:31:58.352Z,97901.45
2023-05-12T08:34:28.621Z,97893.11
2023-05-12T08:36:58.677Z,97896.34
2023-05-12T08:39:30.682Z,97895.45
2023-05-12T08:42:13.317Z,97892.21
2023-05-12T08:44:44.272Z,97906.23
2023-05-12T08:47:16.156Z,97906.07
2023-05-12T08:49:51.081Z,97909.93
2023-05-12T08:52:25.090Z,97910.96
2023-05-12T08:55:03.279Z,97905.20
2023-05-12T08:57:40.310Z,97902.70
2023-05-12T09:00:31.787Z,97901.86
2023-05-12T09:03:08.064Z,97902.79
2023-05-12T09:05:40.942Z,97903.76
2023-05-12T09:08:12.850Z,97905.44
2023-05-12T09:10:44.059Z,97903.79
2023-05-12T09:13:20.023Z,97906.05
2023-05-12T09:15:53.510Z,97906.66
2023-05-12T09:18:24.351Z,97909.71
2023-05-12T09:20:54.342Z,97908.97
2023-05-12T09:23:25.950Z,97905.99
2023-05-12T09:26:01.838Z,97907.23
2023-05-12T09:28:40.029Z,97911.89
2023-05-12T09:31:24.054Z,97903.93
2023-05-12T09:33:55.236Z,97904.88
2023-05-12T09:36:26.315Z,97903.62
2023-05-12T09:39:04.920Z,97904.00
2023-05-12T09:41:37.758Z,97902.29
2023-05-12T09:44:08.893Z,97902.13
2023-05-12T09:46:40.529Z,97902.82
2023-05-12T09:49:11.475Z,97903.13
2023-05-12T09:51:41.910Z,97897.33
2023-05-12T09:54:12.282Z,97897.92
2023-05-12T09:56:42.757Z,97900.54
2023-05-12T09:59:15.628Z,97899.31
2023-05-12T10:01:45.777Z,97895.80
2023-05-12T10:04:17.344Z,97898.91
2023-05-12T10:06:47.822Z,97901.25
2023-05-12T10:09:20.930Z,97899.15
2023-05-12T10:11:52.063Z,97901.92
2023-05-12T10:14:24.658Z,97903.47
2023-05-12T10:16:55.757Z,97895.61
2023-05-12T10:19:27.085Z,97897.33
2023-05-12T10:21:58.294Z,97903.30
2023-05-12T10:24:28.908Z,97899.38
2023-05-12T10:26:59.577Z,97900.91
2023-05-12T10:29:32.689Z,97901.68
2023-05-12T10:32:02.975Z,97895.13
2023-05-12T10:34:35.496Z,97893.19
2023-05-12T10:37:08.646Z,97896.98
2023-05-12T10:39:46.729Z,97893.20
2023-05-12T10:42:22.709Z,97894.71
2023-05-12T10:44:54.928Z,97894.75
2023-05-12T10:47:38.220Z,97895.67
2023-05-12T10:50:13.279Z,97892.39
2023-05-12T10:52:54.981Z,97896.68
2023-05-12T10:55:34.260Z,97892.65
2023-05-12T10:58:10.657Z,97889.86
2023-05-12T11:00:50.405Z,97893.23
2023-05-12T11:03:27.075Z,97897.60
2023-05-12T11:06:06.948Z,97890.67
2023-05-12T11:08:39.875Z,97889.23
2023-05-12T11:11:18.302Z,97889.02
2023-05-12T11:13:49.158Z,97888.34
2023-05-12T11:16:20.947Z,97884.39
2023-05-12T11:19:00.526Z,97884.08
2023-05-12T11:21:32.117Z,97886.80
2023-05-12T11:24:02.987Z,97891.98
2023-05-12T11:26:34.467Z,97891.88
2023-05-12T11:29:06.202Z,97891.20
2023-05-12T11:31:36.326Z,97890.52
2023-05-12T11:34:12.640Z,97887.95
2023-05-12T11:36:45.058Z,97890.84
2023-05-12T11:39:22.548Z,97886.56
2023-05-12T11:42:02.156Z,97882.67
2023-05-12T11:44:35.811Z,97883.23
2023-05-12T11:47:14.513Z,97879.77
2023-05-12T11:49:49.987Z,97885.75
2023-05-12T11:52:21.917Z,97888.61
2023-05-12T11:54:57.936Z,97888.45
2023-05-12T11:57:29.001Z,97884.12
2023-05-12T12:00:00.790Z,97882.97
2023-05-12T12:02:32.257Z,97878.15
2023-05-12T12:05:02.598Z,97885.69
2023-05-12T12:07:34.021Z,97882.59
2023-05-12T12:10:14.597Z,97881.81
2023-05-12T12:12:45.531Z,97893.04
2023-05-12T12:15:15.467Z,97887.85
2023-05-12T12:17:45.621Z,97891.48
2023-05-12T12:20:17.540Z,97881.58
2023-05-12T12:22:48.326Z,97887.10
2023-05-12T12:25:19.292Z,97887.22
2023-05-12T12:27:49.571Z,97889.75
2023-05-12T12:30:20.173Z,97891.16
2023-05-12T12:32:50.495Z,97890.62
2023-05-12T12:35:20.948Z,97890.55
2023-05-12T12:37:51.890Z,97885.92
2023-05-12T12:40:22.187Z,97884.84
2023-05-12T12:42:53.057Z,97883.31
2023-05-12T12:45:23.316Z,97885.46
2023-05-12T12:47:54.992Z,97876.01
2023-05-12T12:50:25.862Z,97879.09
2023-05-12T12:52:57.329Z,97882.23
2023-05-12T12:55:27.190Z,97878.42
2023-05-12T12:57:57.674Z,97878.82
2023-05-12T13:00:28.073Z,97877.33
2023-05-12T13:02:59.377Z,97882.15
2023-05-12T13:05:29.253Z,97881.62
2023-05-12T13:07:59.451Z,97877.08
2023-05-12T13:10:29.715Z,97878.85
2023-05-12T13:13:00.411Z,97881.98
2023-05-12T13:15:32.008Z,97886.16
2023-05-12T13:18:02.115Z,97882.36
2023-05-12T13:20:32.853Z,97877.98
2023-05-12T13:23:03.377Z,97878.98
2023-05-12T13:25:33.588Z,97875.77
2023-05-12T13:28:03.632Z,97877.61
2023-05-12T13:30:34.559Z,97870.98
2023-05-12T13:33:06.040Z,97875.34
2023-05-12T13:35:36.620Z,97876.25
2023-05-12T13:38:06.799Z,97876.34
2023-05-12T13:40:37.090Z,97875.80
2023-05-12T13:43:08.168Z,97875.31
2023-05-12T13:45:38.380Z,97871.42
2023-05-12T13:48:08.827Z,97865.69
2023-05-12T13:50:39.048Z,97869.92
2023-05-12T13:53:09.366Z,97867.93
2023-05-12T13:55:40.726Z,97871.10
2023-05-12T13:58:11.237Z,97869.81
2023-05-12T14:00:41.336Z,97870.66
2023-05-12T14:03:11.497Z,97874.48
2023-05-12T14:05:41.481Z,97865.86
2023-05-12T14:08:11.744Z,97867.08
2023-05-12T14:10:42.307Z,97869.38
2023-05-12T14:13:13.534Z,97871.44
2023-05-12T14:15:49.046Z,97873.01
2023-05-12T14:18:20.520Z,97873.66
2023-05-12T14:20:51.097Z,97874.15
2023-05-12T14:23:22.037Z,97867.92
2023-05-12T14:25:52.126Z,97866.61
2023-05-12T14:28:23.089Z,97863.16
2023-05-12T14:30:56.298Z,97875.70
2023-05-12T14:33:26.862Z,97863.52
2023-05-12T14:36:06.513Z,97866.11
2023-05-12T14:38:37.762Z,97866.14
2023-05-12T14:41:09.377Z,97868.55
2023-05-12T14:43:40.190Z,97868.11
2023-05-12T14:46:11.032Z,97865.38
2023-05-12T14:48:41.344Z,97872.70
2023-05-12T14:51:11.449Z,97872.98
2023-05-12T14:53:41.930Z,97868.86
2023-05-12T14:56:12.098Z,97872.41
2023-05-12T14:58:42.471Z,97874.29
2023-05-12T15:01:12.506Z,97866.98
2023-05-12T15:03:43.291Z,97864.88
2023-05-12T15:06:14.682Z,97868.60
2023-05-12T15:08:45.211Z,97863.51
2023-05-12T15:11:15.159Z,97868.60
2023-05-12T15:13:45.159Z,97864.80
2023-05-12T15:16:15.464Z,97862.16
2023-05-12T15:18:45.297Z,97863.90
2023-05-12T15:21:15.496Z,97863.73
2023-05-12T15:23:45.326Z,97865.30
2023-05-12T15:28:51.358Z,97864.96
2023-05-12T15:31:22.396Z,97865.27
2023-05-12T15:33:52.441Z,97863.47
2023-05-12T15:36:22.771Z,97863.62
2023-05-12T15:38:52.936Z,97860.70
2023-05-12T15:41:22.947Z,97859.05
2023-05-12T15:43:52.998Z,97858.53
2023-05-12T15:46:23.993Z,97867.23
2023-05-12T15:48:54.181Z,97861.77
2023-05-12T15:51:24.294Z,97863.94
2023-05-12T15:53:54.410Z,97862.23
2023-05-12T15:56:24.430Z,97862.96
2023-05-12T15:58:55.921Z,97862.85
2023-05-12T16:01:26.041Z,97863.52
2023-05-12T16:03:56.195Z,97864.68
2023-05-12T16:06:26.472Z,97856.59
2023-05-12T16:08:56.507Z,97865.78
2023-05-12T16:11:26.810Z,97861.64
2023-05-12T16:13:57.441Z,97864.64
2023-05-12T16:16:27.397Z,97863.11
2023-05-12T16:18:57.921Z,97864.39
2023-05-12T16:21:27.956Z,97872.98
2023-05-12T16:23:58.033Z,97875.20
2023-05-12T16:26:29.141Z,97873.90
2023-05-12T16:28:59.097Z,97876.61
2023-05-12T16:31:30.800Z,97883.84
2023-05-12T16:34:02.848Z,97889.01
2023-05-12T16:36:35.251Z,97887.58
2023-05-12T16:39:05.490Z,97888.08
2023-05-12T16:41:35.698Z,97889.16
2023-05-12T16:44:06.250Z,97886.85
2023-05-12T16:46:36.697Z,97890.23
2023-05-12T16:49:07.865Z,97892.27
2023-05-12T16:51:38.517Z,97891.11
2023-05-12T16:54:08.896Z,97894.80
2023-05-12T16:56:38.936Z,97894.20
2023-05-12T16:59:08.984Z,97891.48
2023-05-12T17:01:45.348Z,97893.00
2023-05-12T17:04:15.569Z,97897.65
2023-05-12T17:06:50.388Z,97899.01
2023-05-12T17:09:41.731Z,97897.52
2023-05-12T17:12:14.096Z,97902.91
2023-05-12T17:14:45.943Z,97904.26
2023-05-12T17:17:21.023Z,97901.41
2023-05-12T17:19:52.962Z,97904.77
2023-05-12T17:22:24.673Z,97906.35
2023-05-12T17:24:54.824Z,97907.11
2023-05-12T17:27:25.579Z,97907.38
2023-05-12T17:30:00.229Z,97908.09
2023-05-12T17:32:30.969Z,97912.31
2023-05-12T17:35:01.262Z,97915.11
2023-05-12T17:37:31.583Z,97918.30
2023-05-12T17:40:02.039Z,97924.28
2023-05-12T17:42:33.005Z,97918.00
2023-05-12T17:45:03.700Z,97920.67
2023-05-12T17:47:33.949Z,97921.48
2023-05-12T17:50:04.656Z,97922.38
2023-05-12T17:52:35.066Z,97925.73
2023-05-12T17:55:06.698Z,97928.02
2023-05-12T17:57:37.621Z,97928.00
2023-05-12T18:00:10.368Z,97931.99
2023-05-12T18:02:47.037Z,97933.34
2023-05-12T18:05:17.307Z,97933.57
2023-05-12T18:07:47.307Z,97933.83
2023-05-12T18:10:18.936Z,97935.23
2023-05-12T18:13:06.621Z,97935.25
2023-05-12T18:15:36.788Z,97935.14
2023-05-12T18:18:07.621Z,97935.89
2023-05-12T18:20:37.936Z,97939.42
2023-05-12T18:23:07.926Z,97943.55
2023-05-12T18:25:41.578Z,97944.25
2023-05-12T18:28:12.209Z,97948.04
2023-05-12T18:30:42.426Z,97950.27
2023-05-12T18:33:13.323Z,97949.61
2023-05-12T18:35:43.591Z,97953.34
2023-05-12T18:38:13.660Z,97952.17
2023-05-12T18:40:44.455Z,97952.66
2023-05-12T18:43:14.297Z,97955.09
2023-05-12T18:45:44.439Z,97960.76
2023-05-12T18:48:15.825Z,97959.10
2023-05-12T18:50:46.671Z,97956.94
2023-05-12T18:53:16.584Z,97963.10
2023-05-12T18:55:47.857Z,97963.54
2023-05-12T18:58:18.236Z,97963.45
2023-05-12T19:00:48.947Z,97963.48
2023-05-12T19:03:19.087Z,97964.77
2023-05-12T19:05:49.714Z,97965.35
2023-05-12T19:08:21.114Z,97969.02
2023-05-12T19:10:51.575Z,97970.16
2023-05-12T19:13:22.222Z,97970.92
2023-05-12T19:15:52.564Z,97974.36
2023-05-12T19:18:22.881Z,97974.55
2023-05-12T19:20:53.060Z,97975.94
2023-05-12T19:23:24.140Z,97980.59
2023-05-12T19:25:54.565Z,97979.21
2023-05-12T19:28:24.813Z,97981.72
2023-05-12T19:30:56.880Z,97980.84
2023-05-12T19:33:29.119Z,97980.17
2023-05-12T19:35:59.538Z,97986.18
2023-05-12T19:38:29.784Z,97984.52
2023-05-12T19:41:00.845Z,97986.79
2023-05-12T19:43:30.967Z,97989.92
2023-05-12T19:46:01.793Z,97986.09
2023-05-12T19:48:33.065Z,97987.77
2023-05-12T19:51:04.057Z,97986.88
2023-05-12T19:53:34.261Z,97989.48
2023-05-12T19:56:04.861Z,97986.70
2023-05-12T19:58:34.861Z,97988.64
2023-05-12T20:01:25.111Z,97988.88
2023-05-12T20:03:55.102Z,97992.45
2023-05-12T20:06:25.191Z,97991.90
2023-05-12T20:08:55.302Z,97988.09
2023-05-12T20:11:25.301Z,97989.46
2023-05-12T20:13:55.402Z,97987.79
2023-05-12T20:16:25.583Z,97989.91
2023-05-12T20:18:55.725Z,97985.58
2023-05-12T20:21:25.700Z,97989.77
2023-05-12T20:23:55.912Z,97985.55
2023-05-12T20:26:26.039Z,97984.63
2023-05-12T20:28:56.060Z,97983.89
2023-05-12T20:31:26.665Z,97982.09
2023-05-12T20:33:56.605Z,97981.83
2023-05-12T20:36:26.805Z,97986.40
2023-05-12T20:38:58.661Z,97985.12
2023-05-12T20:41:29.588Z,97984.86
2023-05-12T20:43:59.714Z,97982.30
2023-05-12T20:46:30.730Z,97980.38
2023-05-12T20:49:00.962Z,97984.09
2023-05-12T20:51:32.040Z,97979.15
2023-05-12T20:54:02.176Z,97982.63
2023-05-12T20:56:32.596Z,97982.87
2023-05-12T20:59:03.007Z,97982.64
2023-05-12T21:01:33.664Z,97987.55
2023-05-12T21:04:03.744Z,97985.27
2023-05-12T21:06:38.919Z,97984.88
2023-05-12T21:09:10.684Z,97983.59
2023-05-12T21:11:41.341Z,97983.79
2023-05-12T21:14:11.479Z,97984.23
2023-05-12T21:16:41.935Z,97981.36
2023-05-12T21:19:12.601Z,97980.14
2023-05-12T21:21:43.021Z,97980.14
2023-05-12T21:24:13.154Z,97980.45
2023-05-12T21:26:43.218Z,97981.75
2023-05-12T21:29:13.338Z,97979.40
2023-05-12T21:31:43.491Z,97979.41
2023-05-12T21:34:13.865Z,97982.23
2023-05-12T21:36:44.056Z,97984.98
2023-05-12T21:39:14.477Z,97984.36
2023-05-12T21:41:44.518Z,97988.46
2023-05-12T21:44:14.668Z,97985.20
2023-05-12T21:46:45.094Z,97986.90
2023-05-12T21:49:15.365Z,97987.09
2023-05-12T21:51:45.598Z,97988.61
2023-05-12T21:54:15.657Z,97985.53
2023-05-12T21:56:45.947Z,97987.42
2023-05-12T21:59:15.959Z,97985.05
2023-05-12T22:01:46.334Z,97983.74
2023-05-12T22:04:17.300Z,97984.45
2023-05-12T22:06:48.861Z,97985.38
2023-05-12T22:09:20.143Z,97987.48
2023-05-12T22:11:51.344Z,97987.08
2023-05-12T22:14:22.432Z,97987.38
2023-05-12T22:16:53.620Z,97988.95
2023-05-12T22:19:25.213Z,97987.48
2023-05-12T22:21:56.703Z,97989.58
2023-05-12T22:24:27.011Z,97989.11
2023-05-12T22:26:57.162Z,97989.85
2023-05-12T22:29:27.443Z,97988.50
2023-05-12T22:31:57.498Z,97990.64
2023-05-12T22:34:27.787Z,97987.09
2023-05-12T22:36:57.734Z,97985.10
2023-05-12T22:39:27.643Z,97984.23
2023-05-12T22:41:57.763Z,97981.11
2023-05-12T22:44:27.682Z,97984.63
2023-05-12T22:46:58.212Z,97984.21
2023-05-12T22:49:28.709Z,97982.67
2023-05-12T22:51:59.936Z,97984.48
2023-05-12T22:54:30.141Z,97984.52
2023-05-12T22:57:00.377Z,97989.40
2023-05-12T22:59:30.418Z,97987.84
2023-05-12T23:02:01.178Z,97989.98
2023-05-12T23:04:31.264Z,97989.46
2023-05-12T23:07:01.323Z,97990.13
2023-05-12T23:09:31.516Z,97993.02
2023-05-12T23:12:02.062Z,97991.18
2023-05-12T23:14:32.300Z,97989.46
2023-05-12T23:17:02.767Z,97987.36
2023-05-12T23:19:33.140Z,97989.66
2023-05-12T23:22:03.487Z,97993.36
2023-05-12T23:24:33.812Z,97992.76
2023-05-12T23:27:04.160Z,97988.23
2023-05-12T23:29:34.800Z,97989.66
2023-05-12T23:32:05.544Z,97996.39
2023-05-12T23:34:36.017Z,97995.20
2023-05-12T23:37:06.501Z,97995.16
2023-05-12T23:39:36.806Z,97986.36
2023-05-12T23:42:07.640Z,97989.63
2023-05-12T23:44:37.835Z,97986.52
2023-05-12T23:47:08.589Z,97985.87
2023-05-12T23:49:38.763Z,97985.41
2023-05-12T23:52:09.399Z,97983.24
2023-05-12T23:54:39.547Z,97981.15
2023-05-12T23:57:09.540Z,97982.58
2023-05-12T23:59:39.745Z,97984.59
